Terminal Aerodrome Forecast
Issued by NWS Cleveland, OH

Home | Current Version | Previous Version | Graphics & Text | Print | Product List | Glossary On
Versions: 1 2 3 4 5 6 7 8 9 10 11 12 13 14 15 16 17
581
FTUS41 KCLE 291137
TAFERI
TAF
KERI 291137Z 2912/3012 07006KT P6SM OVC020
     FM291700 03010KT 6SM -SHRA OVC022
     FM292100 02008KT P6SM BKN028
     FM292300 VRB04KT P6SM SCT050=

USA.gov is the U.S. government's official web portal to all federal, state and local government web resources and services.